createdAt,value
2023-01-10T00:05:12.779Z,3.53
2023-01-10T00:10:15.637Z,2.80
2023-01-10T00:15:18.311Z,2.83
2023-01-10T00:20:21.062Z,3.67
2023-01-10T00:25:23.946Z,3.60
2023-01-10T00:30:39.407Z,3.00
2023-01-10T00:35:42.735Z,2.80
2023-01-10T00:40:46.645Z,3.47
2023-01-10T00:45:49.302Z,3.23
2023-01-10T00:50:52.064Z,3.40
2023-01-10T00:55:55.466Z,3.20
2023-01-10T01:00:58.131Z,2.97
2023-01-10T01:06:05.492Z,3.07
2023-01-10T01:11:08.023Z,3.27
2023-01-10T01:16:10.666Z,3.57
2023-01-10T01:21:13.466Z,2.67
2023-01-10T01:26:16.096Z,3.70
2023-01-10T01:31:18.755Z,3.03
2023-01-10T01:36:21.695Z,3.43
2023-01-10T01:41:42.834Z,3.13
2023-01-10T01:47:03.508Z,3.53
2023-01-10T01:57:18.234Z,3.77
2023-01-10T02:02:28.791Z,3.57
2023-01-10T02:12:40.597Z,3.67
2023-01-10T02:17:43.499Z,4.60
2023-01-10T02:23:23.212Z,3.57
2023-01-10T02:28:59.838Z,3.10
2023-01-10T02:34:11.821Z,4.03
2023-01-10T02:39:20.411Z,3.50
2023-01-10T02:44:36.446Z,3.97
2023-01-10T02:49:47.267Z,3.40
2023-01-10T02:54:52.327Z,3.67
2023-01-10T03:00:12.148Z,3.87
2023-01-10T03:05:39.954Z,3.67
2023-01-10T03:10:54.554Z,4.40
2023-01-10T03:15:59.651Z,4.00
2023-01-10T03:21:05.540Z,3.93
2023-01-10T03:26:10.447Z,4.53
2023-01-10T03:31:18.986Z,4.17
2023-01-10T03:37:03.495Z,3.93
2023-01-10T03:42:15.905Z,4.23
2023-01-10T03:47:46.876Z,4.90
2023-01-10T03:52:49.578Z,4.40
2023-01-10T03:57:52.158Z,3.97
2023-01-10T04:02:55.798Z,5.40
2023-01-10T04:07:58.384Z,4.90
2023-01-10T04:13:02.698Z,4.70
2023-01-10T04:18:05.361Z,7.67
2023-01-10T04:23:07.906Z,4.93
2023-01-10T04:28:10.489Z,4.40
2023-01-10T04:33:13.682Z,5.37
2023-01-10T04:38:16.895Z,3.90
2023-01-10T04:43:19.516Z,4.07
2023-01-10T04:48:22.131Z,4.83
2023-01-10T04:53:24.735Z,5.47
2023-01-10T04:58:27.844Z,4.57
2023-01-10T05:03:30.412Z,4.47
2023-01-10T05:08:33.748Z,4.40
2023-01-10T05:13:36.330Z,4.53
2023-01-10T05:18:38.860Z,4.63
2023-01-10T05:23:41.440Z,5.50
2023-01-10T05:28:45.037Z,4.73
2023-01-10T05:33:49.957Z,5.07
2023-01-10T05:38:52.673Z,4.53
2023-01-10T05:43:55.156Z,5.23
2023-01-10T05:48:57.736Z,5.03
2023-01-10T05:54:00.357Z,5.00
2023-01-10T05:59:14.073Z,4.83
2023-01-10T06:04:26.761Z,4.47
2023-01-10T06:09:29.294Z,4.73
2023-01-10T06:14:31.929Z,5.60
2023-01-10T06:19:34.631Z,4.13
2023-01-10T06:24:37.191Z,4.17
2023-01-10T06:29:39.747Z,3.80
2023-01-10T06:34:42.287Z,4.67
2023-01-10T06:39:46.427Z,4.20
2023-01-10T06:44:49.085Z,4.63
2023-01-10T06:49:51.926Z,5.07
2023-01-10T06:54:54.488Z,4.33
2023-01-10T06:59:57.020Z,4.57
2023-01-10T07:04:59.577Z,4.00
2023-01-10T07:10:02.177Z,4.27
2023-01-10T07:15:06.709Z,4.43
2023-01-10T07:20:10.134Z,4.80
2023-01-10T07:25:12.751Z,5.23
2023-01-10T07:30:16.664Z,5.10
2023-01-10T07:35:19.280Z,4.63
2023-01-10T07:40:22.142Z,5.83
2023-01-10T07:45:27.086Z,4.70
2023-01-10T07:50:34.443Z,4.33
2023-01-10T07:55:39.790Z,4.30
2023-01-10T08:00:42.631Z,4.27
2023-01-10T08:05:45.227Z,5.33
2023-01-10T08:10:47.765Z,4.37
2023-01-10T08:15:51.935Z,4.27
2023-01-10T08:20:56.408Z,3.97
2023-01-10T08:25:59.688Z,4.00
2023-01-10T08:31:09.403Z,4.10
2023-01-10T08:36:20.327Z,5.13
2023-01-10T08:41:23.178Z,3.78
2023-01-10T08:46:25.850Z,3.97
2023-01-10T08:51:28.611Z,4.23
2023-01-10T08:56:31.249Z,3.90
2023-01-10T09:01:34.193Z,4.50
2023-01-10T09:06:37.475Z,4.23
2023-01-10T09:11:41.854Z,3.77
2023-01-10T09:16:44.819Z,4.17
2023-01-10T09:21:47.406Z,4.00
2023-01-10T09:26:49.961Z,4.20
2023-01-10T09:31:52.505Z,3.90
2023-01-10T09:36:55.182Z,4.20
2023-01-10T09:42:10.540Z,4.00
2023-01-10T09:47:30.022Z,3.33
2023-01-10T09:52:40.619Z,3.73
2023-01-10T09:57:43.383Z,4.57
2023-01-10T10:02:51.343Z,3.90
2023-01-10T10:07:57.139Z,3.77
2023-01-10T10:13:27.929Z,4.20
2023-01-10T10:18:55.230Z,3.33
2023-01-10T10:24:24.643Z,4.10
2023-01-10T10:30:09.227Z,3.53
2023-01-10T10:35:37.292Z,3.90
2023-01-10T10:40:43.399Z,3.60
2023-01-10T10:45:50.936Z,3.87
2023-01-10T10:51:01.066Z,3.43
2023-01-10T10:56:06.722Z,4.00
2023-01-10T11:01:14.155Z,3.70
2023-01-10T11:06:20.086Z,3.87
2023-01-10T11:11:50.597Z,4.00
2023-01-10T11:16:53.316Z,3.17
2023-01-10T11:21:59.857Z,4.10
2023-01-10T11:27:25.132Z,4.13
2023-01-10T11:32:51.678Z,3.50
2023-01-10T11:38:06.997Z,3.30
2023-01-10T11:43:34.056Z,3.37
2023-01-10T11:49:08.438Z,4.20
2023-01-10T11:54:26.555Z,3.93
2023-01-10T11:59:30.020Z,4.10
2023-01-10T12:04:39.774Z,4.23
2023-01-10T12:09:56.129Z,4.07
2023-01-10T12:15:02.302Z,4.10
2023-01-10T12:20:13.065Z,4.27
2023-01-10T12:25:23.180Z,4.20
2023-01-10T12:30:33.484Z,4.13
2023-01-10T12:35:39.595Z,4.43
2023-01-10T12:40:56.898Z,4.33
2023-01-10T12:46:28.144Z,4.20
2023-01-10T12:51:37.258Z,5.30
2023-01-10T12:56:40.574Z,4.67
2023-01-10T13:01:47.025Z,4.97
2023-01-10T13:06:50.500Z,4.60
2023-01-10T13:12:17.400Z,4.47
2023-01-10T13:17:37.041Z,6.27
2023-01-10T13:22:39.681Z,5.03
2023-01-10T13:27:42.789Z,4.97
2023-01-10T13:33:19.580Z,4.50
2023-01-10T13:38:25.448Z,4.27
2023-01-10T13:43:57.126Z,5.43
2023-01-10T13:49:03.829Z,4.78
2023-01-10T13:54:18.819Z,4.77
2023-01-10T13:59:42.733Z,3.90
2023-01-10T14:05:00.693Z,4.83
2023-01-10T14:10:07.544Z,4.83
2023-01-10T14:15:37.078Z,4.63
2023-01-10T14:20:41.173Z,4.37
2023-01-10T14:25:45.584Z,4.17
2023-01-10T14:31:01.824Z,4.97
2023-01-10T14:36:20.087Z,5.43
2023-01-10T14:41:48.621Z,4.10
2023-01-10T14:46:53.838Z,4.57
2023-01-10T14:52:12.670Z,4.13
2023-01-10T14:57:20.852Z,5.00
2023-01-10T15:02:29.624Z,4.20
2023-01-10T15:07:32.193Z,4.67
2023-01-10T15:12:35.388Z,4.20
2023-01-10T15:17:38.542Z,4.17
2023-01-10T15:22:44.241Z,4.70
2023-01-10T15:27:49.978Z,4.20
2023-01-10T15:32:56.210Z,4.60
2023-01-10T15:38:06.363Z,4.37
2023-01-10T15:43:28.557Z,4.80
2023-01-10T15:48:31.090Z,4.70
2023-01-10T15:53:55.492Z,3.90
2023-01-10T15:58:59.811Z,4.73
2023-01-10T16:04:05.340Z,5.33
2023-01-10T16:09:17.681Z,4.10
2023-01-10T16:14:20.427Z,3.90
2023-01-10T16:19:23.146Z,4.37
2023-01-10T16:24:29.947Z,4.07
2023-01-10T16:29:33.284Z,4.73
2023-01-10T16:34:35.766Z,4.67
2023-01-10T16:39:38.365Z,4.70
2023-01-10T16:44:41.721Z,4.20
2023-01-10T16:49:45.526Z,4.50
2023-01-10T16:54:48.164Z,4.47
2023-01-10T16:59:50.756Z,4.53
2023-01-10T17:04:54.517Z,4.27
2023-01-10T17:09:58.639Z,3.80
2023-01-10T17:15:04.085Z,4.33
2023-01-10T17:20:07.434Z,4.87
2023-01-10T17:25:19.330Z,4.63
2023-01-10T17:30:22.002Z,4.27
2023-01-10T17:35:28.327Z,4.00
2023-01-10T17:40:31.060Z,4.17
2023-01-10T17:45:33.764Z,5.83
2023-01-10T17:50:36.768Z,4.90
2023-01-10T17:55:49.578Z,5.40
2023-01-10T18:00:52.358Z,4.40
2023-01-10T18:05:57.210Z,4.60
2023-01-10T18:11:00.841Z,5.47
2023-01-10T18:16:03.748Z,5.30
2023-01-10T18:21:13.725Z,5.10
2023-01-10T18:26:16.324Z,5.73
2023-01-10T18:31:19.723Z,5.07
2023-01-10T18:36:23.413Z,5.37
2023-01-10T18:41:26.341Z,4.77
2023-01-10T18:46:29.198Z,5.93
2023-01-10T18:51:31.938Z,5.67
2023-01-10T18:56:34.577Z,5.57
2023-01-10T19:01:37.297Z,5.13
2023-01-10T19:06:39.986Z,4.77
2023-01-10T19:11:42.578Z,5.60
2023-01-10T19:16:45.221Z,5.60
2023-01-10T19:21:47.754Z,5.83
2023-01-10T19:26:51.581Z,5.00
2023-01-10T19:31:54.233Z,5.07
2023-01-10T19:36:56.945Z,4.63
2023-01-10T19:41:59.538Z,5.37
2023-01-10T19:47:02.764Z,4.13
2023-01-10T19:52:05.769Z,5.33
2023-01-10T19:57:08.502Z,4.83
2023-01-10T20:02:13.189Z,5.03
2023-01-10T20:07:17.437Z,4.97
2023-01-10T20:12:21.240Z,5.40
2023-01-10T20:17:24.012Z,5.50
2023-01-10T20:22:27.585Z,4.93
2023-01-10T20:27:30.156Z,4.63
2023-01-10T20:32:32.801Z,5.40
2023-01-10T20:37:35.405Z,4.20
2023-01-10T20:42:40.641Z,4.63
2023-01-10T20:47:43.606Z,4.87
2023-01-10T20:52:46.454Z,4.67
2023-01-10T20:57:49.098Z,4.63
2023-01-10T21:02:51.709Z,3.90
2023-01-10T21:07:54.536Z,4.57
2023-01-10T21:12:57.227Z,4.03
2023-01-10T21:17:59.798Z,3.97
2023-01-10T21:23:02.376Z,4.97
2023-01-10T21:28:09.800Z,4.00
2023-01-10T21:33:13.210Z,4.10
2023-01-10T21:38:15.734Z,4.20
2023-01-10T21:43:18.350Z,3.73
2023-01-10T21:48:21.524Z,4.00
2023-01-10T21:53:24.271Z,3.83
2023-01-10T21:58:27.427Z,4.43
2023-01-10T22:03:31.408Z,3.30
2023-01-10T22:08:34.012Z,3.63
2023-01-10T22:13:36.524Z,2.90
2023-01-10T22:18:39.128Z,3.57
2023-01-10T22:23:43.123Z,3.03
2023-01-10T22:28:45.728Z,3.83
2023-01-10T22:33:48.380Z,3.67
2023-01-10T22:38:51.081Z,3.07
2023-01-10T22:43:55.096Z,3.50
2023-01-10T22:48:57.847Z,3.30
2023-01-10T22:54:00.440Z,4.07
2023-01-10T22:59:03.004Z,3.53
2023-01-10T23:04:05.891Z,3.20
2023-01-10T23:09:08.597Z,2.70
2023-01-10T23:14:11.162Z,2.50
2023-01-10T23:19:13.788Z,3.40
2023-01-10T23:24:16.740Z,2.53
2023-01-10T23:29:19.252Z,2.83
2023-01-10T23:34:21.836Z,3.30
2023-01-10T23:39:24.651Z,2.67
2023-01-10T23:44:28.954Z,1.93
2023-01-10T23:49:31.498Z,2.27
2023-01-10T23:54:34.078Z,2.23
2023-01-10T23:59:36.664Z,2.37
